sensor_id;sensor_type;location;lat;lon;timestamp;temperature;humidity
26745;DHT22;14342;50.960;13.880;2023-08-20T00:00:29;26.00;99.90
26745;DHT22;14342;50.960;13.880;2023-08-20T00:01:30;26.00;99.90
26745;DHT22;14342;50.960;13.880;2023-08-20T00:02:32;25.90;99.90
26745;DHT22;14342;50.960;13.880;2023-08-20T00:03:34;25.90;99.90
26745;DHT22;14342;50.960;13.880;2023-08-20T00:04:36;25.90;99.90
26745;DHT22;14342;50.960;13.880;2023-08-20T00:05:37;25.80;99.90
26745;DHT22;14342;50.960;13.880;2023-08-20T00:06:39;25.80;99.90
26745;DHT22;14342;50.960;13.880;2023-08-20T00:07:43;25.80;99.90
26745;DHT22;14342;50.960;13.880;2023-08-20T00:08:45;25.80;99.90
26745;DHT22;14342;50.960;13.880;2023-08-20T00:09:46;25.70;99.90
26745;DHT22;14342;50.960;13.880;2023-08-20T00:10:48;25.70;99.90
26745;DHT22;14342;50.960;13.880;2023-08-20T00:11:48;26.00;99.90
26745;DHT22;14342;50.960;13.880;2023-08-20T00:12:49;25.80;99.90
26745;DHT22;14342;50.960;13.880;2023-08-20T00:13:50;25.80;99.90
26745;DHT22;14342;50.960;13.880;2023-08-20T00:14:52;25.80;99.90
26745;DHT22;14342;50.960;13.880;2023-08-20T00:15:55;25.80;99.90
26745;DHT22;14342;50.960;13.880;2023-08-20T00:16:57;25.80;99.90
26745;DHT22;14342;50.960;13.880;2023-08-20T00:17:58;25.70;99.90
26745;DHT22;14342;50.960;13.880;2023-08-20T00:19:02;25.60;99.90
26745;DHT22;14342;50.960;13.880;2023-08-20T00:20:04;25.60;99.90
26745;DHT22;14342;50.960;13.880;2023-08-20T00:21:10;25.60;99.90
26745;DHT22;14342;50.960;13.880;2023-08-20T00:22:11;25.60;99.90
26745;DHT22;14342;50.960;13.880;2023-08-20T00:23:13;25.60;99.90
26745;DHT22;14342;50.960;13.880;2023-08-20T00:24:14;25.70;99.90
26745;DHT22;14342;50.960;13.880;2023-08-20T00:25:16;25.70;99.90
26745;DHT22;14342;50.960;13.880;2023-08-20T00:26:17;25.70;99.90
26745;DHT22;14342;50.960;13.880;2023-08-20T00:27:19;25.70;99.90
26745;DHT22;14342;50.960;13.880;2023-08-20T00:28:20;25.70;99.90
26745;DHT22;14342;50.960;13.880;2023-08-20T00:29:22;25.80;99.90
26745;DHT22;14342;50.960;13.880;2023-08-20T00:30:22;25.70;99.90
26745;DHT22;14342;50.960;13.880;2023-08-20T00:31:25;25.80;99.90
26745;DHT22;14342;50.960;13.880;2023-08-20T00:32:26;25.80;99.90
26745;DHT22;14342;50.960;13.880;2023-08-20T00:33:26;25.80;99.90
26745;DHT22;14342;50.960;13.880;2023-08-20T00:34:28;25.80;99.90
26745;DHT22;14342;50.960;13.880;2023-08-20T00:35:29;25.80;99.90
26745;DHT22;14342;50.960;13.880;2023-08-20T00:36:31;25.90;99.90
26745;DHT22;14342;50.960;13.880;2023-08-20T00:37:34;25.90;99.90
26745;DHT22;14342;50.960;13.880;2023-08-20T00:38:35;25.90;99.90
26745;DHT22;14342;50.960;13.880;2023-08-20T00:39:37;25.90;99.90
26745;DHT22;14342;50.960;13.880;2023-08-20T00:40:37;25.90;99.90
26745;DHT22;14342;50.960;13.880;2023-08-20T00:41:39;25.90;99.90
26745;DHT22;14342;50.960;13.880;2023-08-20T00:42:40;25.90;99.90
26745;DHT22;14342;50.960;13.880;2023-08-20T00:43:41;25.90;99.90
26745;DHT22;14342;50.960;13.880;2023-08-20T00:44:42;25.90;99.90
26745;DHT22;14342;50.960;13.880;2023-08-20T00:45:44;25.90;99.90
26745;DHT22;14342;50.960;13.880;2023-08-20T00:46:47;25.90;99.90
26745;DHT22;14342;50.960;13.880;2023-08-20T00:47:48;25.90;99.90
26745;DHT22;14342;50.960;13.880;2023-08-20T00:48:49;25.90;99.90
26745;DHT22;14342;50.960;13.880;2023-08-20T00:49:51;25.90;99.90
26745;DHT22;14342;50.960;13.880;2023-08-20T00:50:53;25.90;99.90
26745;DHT22;14342;50.960;13.880;2023-08-20T00:51:54;25.90;99.90
26745;DHT22;14342;50.960;13.880;2023-08-20T00:52:55;25.90;99.90
26745;DHT22;14342;50.960;13.880;2023-08-20T00:53:57;26.00;99.90
26745;DHT22;14342;50.960;13.880;2023-08-20T00:54:57;26.00;99.90
26745;DHT22;14342;50.960;13.880;2023-08-20T00:55:59;26.00;99.90
26745;DHT22;14342;50.960;13.880;2023-08-20T00:57:00;26.00;99.90
26745;DHT22;14342;50.960;13.880;2023-08-20T00:58:03;26.00;99.90
26745;DHT22;14342;50.960;13.880;2023-08-20T00:59:04;26.00;99.90
26745;DHT22;14342;50.960;13.880;2023-08-20T01:00:06;26.10;99.90
26745;DHT22;14342;50.960;13.880;2023-08-20T01:01:08;26.00;99.90
26745;DHT22;14342;50.960;13.880;2023-08-20T01:02:11;26.00;99.90
26745;DHT22;14342;50.960;13.880;2023-08-20T01:03:12;26.00;99.90
26745;DHT22;14342;50.960;13.880;2023-08-20T01:04:14;26.00;99.90
26745;DHT22;14342;50.960;13.880;2023-08-20T01:05:14;26.00;99.90
26745;DHT22;14342;50.960;13.880;2023-08-20T01:06:19;26.00;99.90
26745;DHT22;14342;50.960;13.880;2023-08-20T01:07:22;26.00;99.90
26745;DHT22;14342;50.960;13.880;2023-08-20T01:08:27;25.90;99.90
26745;DHT22;14342;50.960;13.880;2023-08-20T01:09:30;25.90;99.90
26745;DHT22;14342;50.960;13.880;2023-08-20T01:10:39;25.90;99.90
26745;DHT22;14342;50.960;13.880;2023-08-20T01:11:43;25.90;99.90
26745;DHT22;14342;50.960;13.880;2023-08-20T01:12:46;25.90;99.90
26745;DHT22;14342;50.960;13.880;2023-08-20T01:13:47;26.00;99.90
26745;DHT22;14342;50.960;13.880;2023-08-20T01:14:49;26.00;99.90
26745;DHT22;14342;50.960;13.880;2023-08-20T01:15:49;26.20;99.90
26745;DHT22;14342;50.960;13.880;2023-08-20T01:16:50;26.10;99.90
26745;DHT22;14342;50.960;13.880;2023-08-20T01:17:53;26.00;99.90
26745;DHT22;14342;50.960;13.880;2023-08-20T01:18:54;26.10;99.90
26745;DHT22;14342;50.960;13.880;2023-08-20T01:19:55;26.00;99.90
26745;DHT22;14342;50.960;13.880;2023-08-20T01:20:58;26.10;99.90
26745;DHT22;14342;50.960;13.880;2023-08-20T01:22:04;26.10;99.90
26745;DHT22;14342;50.960;13.880;2023-08-20T01:23:12;26.10;99.90
26745;DHT22;14342;50.960;13.880;2023-08-20T01:24:22;26.10;99.90
26745;DHT22;14342;50.960;13.880;2023-08-20T01:25:30;26.10;99.90
26745;DHT22;14342;50.960;13.880;2023-08-20T01:26:40;26.10;99.90
26745;DHT22;14342;50.960;13.880;2023-08-20T01:27:49;26.10;99.90
26745;DHT22;14342;50.960;13.880;2023-08-20T01:28:54;26.10;99.90
26745;DHT22;14342;50.960;13.880;2023-08-20T01:29:56;26.00;99.90
26745;DHT22;14342;50.960;13.880;2023-08-20T01:30:57;26.10;99.90
26745;DHT22;14342;50.960;13.880;2023-08-20T01:31:59;26.10;99.90
26745;DHT22;14342;50.960;13.880;2023-08-20T01:33:00;26.10;99.90
26745;DHT22;14342;50.960;13.880;2023-08-20T01:34:03;26.10;99.90
26745;DHT22;14342;50.960;13.880;2023-08-20T01:35:04;26.10;99.90
26745;DHT22;14342;50.960;13.880;2023-08-20T01:36:06;26.10;99.90
26745;DHT22;14342;50.960;13.880;2023-08-20T01:37:10;26.10;99.90
26745;DHT22;14342;50.960;13.880;2023-08-20T01:38:11;26.10;99.90
26745;DHT22;14342;50.960;13.880;2023-08-20T01:39:12;26.10;99.90
26745;DHT22;14342;50.960;13.880;2023-08-20T01:40:13;26.10;99.90
26745;DHT22;14342;50.960;13.880;2023-08-20T01:41:15;26.10;99.90
26745;DHT22;14342;50.960;13.880;2023-08-20T01:42:16;26.10;99.90
26745;DHT22;14342;50.960;13.880;2023-08-20T01:43:17;26.10;99.90
26745;DHT22;14342;50.960;13.880;2023-08-20T01:44:19;26.10;99.90
26745;DHT22;14342;50.960;13.880;2023-08-20T01:45:21;26.10;99.90
26745;DHT22;14342;50.960;13.880;2023-08-20T01:46:22;26.10;99.90
26745;DHT22;14342;50.960;13.880;2023-08-20T01:47:24;26.10;99.90
26745;DHT22;14342;50.960;13.880;2023-08-20T01:48:24;26.10;99.90
26745;DHT22;14342;50.960;13.880;2023-08-20T01:49:26;26.10;99.90
26745;DHT22;14342;50.960;13.880;2023-08-20T01:50:27;26.10;99.90
26745;DHT22;14342;50.960;13.880;2023-08-20T01:51:28;26.10;99.90
26745;DHT22;14342;50.960;13.880;2023-08-20T01:52:29;26.10;99.90
26745;DHT22;14342;50.960;13.880;2023-08-20T01:53:31;26.10;99.90
26745;DHT22;14342;50.960;13.880;2023-08-20T01:54:31;26.10;99.90
26745;DHT22;14342;50.960;13.880;2023-08-20T01:55:33;26.10;99.90
26745;DHT22;14342;50.960;13.880;2023-08-20T01:56:34;26.10;99.90
26745;DHT22;14342;50.960;13.880;2023-08-20T01:57:34;26.10;99.90
26745;DHT22;14342;50.960;13.880;2023-08-20T01:58:36;26.20;99.90
26745;DHT22;14342;50.960;13.880;2023-08-20T01:59:38;26.10;99.90
26745;DHT22;14342;50.960;13.880;2023-08-20T02:00:40;26.20;99.90
26745;DHT22;14342;50.960;13.880;2023-08-20T02:01:40;26.10;99.90
26745;DHT22;14342;50.960;13.880;2023-08-20T02:02:42;26.20;99.90
26745;DHT22;14342;50.960;13.880;2023-08-20T02:03:43;26.20;99.90
26745;DHT22;14342;50.960;13.880;2023-08-20T02:04:44;26.10;99.90
26745;DHT22;14342;50.960;13.880;2023-08-20T02:05:45;26.20;99.90
26745;DHT22;14342;50.960;13.880;2023-08-20T02:06:46;26.10;99.90
26745;DHT22;14342;50.960;13.880;2023-08-20T02:07:47;26.20;99.90
26745;DHT22;14342;50.960;13.880;2023-08-20T02:08:49;26.10;99.90
26745;DHT22;14342;50.960;13.880;2023-08-20T02:09:50;26.20;99.90
26745;DHT22;14342;50.960;13.880;2023-08-20T02:10:59;26.20;99.90
26745;DHT22;14342;50.960;13.880;2023-08-20T02:12:00;26.20;99.90
26745;DHT22;14342;50.960;13.880;2023-08-20T02:13:01;26.00;99.90
26745;DHT22;14342;50.960;13.880;2023-08-20T02:14:02;26.00;99.90
26745;DHT22;14342;50.960;13.880;2023-08-20T02:15:06;26.00;99.90
26745;DHT22;14342;50.960;13.880;2023-08-20T02:16:07;26.00;99.90
26745;DHT22;14342;50.960;13.880;2023-08-20T02:17:09;26.20;99.90
26745;DHT22;14342;50.960;13.880;2023-08-20T02:18:09;26.00;99.90
26745;DHT22;14342;50.960;13.880;2023-08-20T02:19:11;26.00;99.90
26745;DHT22;14342;50.960;13.880;2023-08-20T02:20:12;26.10;99.90
26745;DHT22;14342;50.960;13.880;2023-08-20T02:21:13;26.00;99.90
26745;DHT22;14342;50.960;13.880;2023-08-20T02:22:14;26.20;99.90
26745;DHT22;14342;50.960;13.880;2023-08-20T02:23:14;26.00;99.90
26745;DHT22;14342;50.960;13.880;2023-08-20T02:24:16;26.00;99.90
26745;DHT22;14342;50.960;13.880;2023-08-20T02:25:17;25.90;99.90
26745;DHT22;14342;50.960;13.880;2023-08-20T02:26:18;26.00;99.90
26745;DHT22;14342;50.960;13.880;2023-08-20T02:27:19;26.00;99.90
26745;DHT22;14342;50.960;13.880;2023-08-20T02:28:21;26.00;99.90
26745;DHT22;14342;50.960;13.880;2023-08-20T02:29:21;26.00;99.90
26745;DHT22;14342;50.960;13.880;2023-08-20T02:30:24;26.00;99.90
26745;DHT22;14342;50.960;13.880;2023-08-20T02:31:25;26.00;99.90
26745;DHT22;14342;50.960;13.880;2023-08-20T02:32:27;26.00;99.90
26745;DHT22;14342;50.960;13.880;2023-08-20T02:33:27;26.00;99.90
26745;DHT22;14342;50.960;13.880;2023-08-20T02:34:29;26.00;99.90
26745;DHT22;14342;50.960;13.880;2023-08-20T02:35:30;25.90;99.90
26745;DHT22;14342;50.960;13.880;2023-08-20T02:36:31;25.90;99.90
26745;DHT22;14342;50.960;13.880;2023-08-20T02:37:32;25.80;99.90
26745;DHT22;14342;50.960;13.880;2023-08-20T02:38:34;25.80;99.90
26745;DHT22;14342;50.960;13.880;2023-08-20T02:39:34;25.80;99.90
26745;DHT22;14342;50.960;13.880;2023-08-20T02:40:39;25.80;99.90
26745;DHT22;14342;50.960;13.880;2023-08-20T02:41:40;25.80;99.90
26745;DHT22;14342;50.960;13.880;2023-08-20T02:42:42;25.80;99.90
26745;DHT22;14342;50.960;13.880;2023-08-20T02:43:42;25.90;99.90
26745;DHT22;14342;50.960;13.880;2023-08-20T02:44:44;25.80;99.90
26745;DHT22;14342;50.960;13.880;2023-08-20T02:45:46;25.70;99.90
26745;DHT22;14342;50.960;13.880;2023-08-20T02:46:48;25.80;99.90
26745;DHT22;14342;50.960;13.880;2023-08-20T02:47:48;25.60;99.90
26745;DHT22;14342;50.960;13.880;2023-08-20T02:48:50;25.60;99.90
26745;DHT22;14342;50.960;13.880;2023-08-20T02:49:51;25.50;99.90
26745;DHT22;14342;50.960;13.880;2023-08-20T02:50:52;25.50;99.90
26745;DHT22;14342;50.960;13.880;2023-08-20T02:51:53;25.50;99.90
26745;DHT22;14342;50.960;13.880;2023-08-20T02:52:55;25.50;99.90
26745;DHT22;14342;50.960;13.880;2023-08-20T02:53:55;25.50;99.90
26745;DHT22;14342;50.960;13.880;2023-08-20T02:54:57;25.40;99.90
26745;DHT22;14342;50.960;13.880;2023-08-20T02:55:58;25.40;99.90
26745;DHT22;14342;50.960;13.880;2023-08-20T02:56:59;25.30;99.90
26745;DHT22;14342;50.960;13.880;2023-08-20T02:58:00;25.30;99.90
26745;DHT22;14342;50.960;13.880;2023-08-20T02:59:02;25.20;99.90
26745;DHT22;14342;50.960;13.880;2023-08-20T03:00:03;25.20;99.90
26745;DHT22;14342;50.960;13.880;2023-08-20T03:01:18;25.30;99.90
26745;DHT22;14342;50.960;13.880;2023-08-20T03:02:19;25.30;99.90
26745;DHT22;14342;50.960;13.880;2023-08-20T03:03:21;25.30;99.90
26745;DHT22;14342;50.960;13.880;2023-08-20T03:04:22;25.20;99.90
26745;DHT22;14342;50.960;13.880;2023-08-20T03:05:23;25.30;99.90
26745;DHT22;14342;50.960;13.880;2023-08-20T03:06:24;25.30;99.90
26745;DHT22;14342;50.960;13.880;2023-08-20T03:07:25;25.40;99.90
26745;DHT22;14342;50.960;13.880;2023-08-20T03:08:26;25.60;99.90
26745;DHT22;14342;50.960;13.880;2023-08-20T03:09:28;25.40;99.90
26745;DHT22;14342;50.960;13.880;2023-08-20T03:10:29;25.40;99.90
26745;DHT22;14342;50.960;13.880;2023-08-20T03:11:31;25.50;99.90
26745;DHT22;14342;50.960;13.880;2023-08-20T03:12:32;25.50;99.90
26745;DHT22;14342;50.960;13.880;2023-08-20T03:13:33;25.50;99.90
26745;DHT22;14342;50.960;13.880;2023-08-20T03:14:34;25.50;99.90
26745;DHT22;14342;50.960;13.880;2023-08-20T03:15:36;25.50;99.90
26745;DHT22;14342;50.960;13.880;2023-08-20T03:16:37;25.50;99.90
26745;DHT22;14342;50.960;13.880;2023-08-20T03:17:39;25.50;99.90
26745;DHT22;14342;50.960;13.880;2023-08-20T03:18:40;25.60;99.90
26745;DHT22;14342;50.960;13.880;2023-08-20T03:19:52;25.60;99.90
26745;DHT22;14342;50.960;13.880;2023-08-20T03:20:54;25.50;99.90
26745;DHT22;14342;50.960;13.880;2023-08-20T03:21:55;25.50;99.90
26745;DHT22;14342;50.960;13.880;2023-08-20T03:22:56;25.60;99.90
26745;DHT22;14342;50.960;13.880;2023-08-20T03:23:58;25.60;99.90
26745;DHT22;14342;50.960;13.880;2023-08-20T03:24:58;25.50;99.90
26745;DHT22;14342;50.960;13.880;2023-08-20T03:26:00;25.50;99.90
26745;DHT22;14342;50.960;13.880;2023-08-20T03:27:01;25.50;99.90
26745;DHT22;14342;50.960;13.880;2023-08-20T03:28:03;25.50;99.90
26745;DHT22;14342;50.960;13.880;2023-08-20T03:29:04;25.50;99.90
26745;DHT22;14342;50.960;13.880;2023-08-20T03:30:06;25.50;99.90
26745;DHT22;14342;50.960;13.880;2023-08-20T03:31:07;25.50;99.90
26745;DHT22;14342;50.960;13.880;2023-08-20T03:32:10;25.50;99.90
26745;DHT22;14342;50.960;13.880;2023-08-20T03:33:11;25.50;99.90
26745;DHT22;14342;50.960;13.880;2023-08-20T03:34:12;25.50;99.90
26745;DHT22;14342;50.960;13.880;2023-08-20T03:35:13;25.50;99.90
26745;DHT22;14342;50.960;13.880;2023-08-20T03:36:13;25.50;99.90
26745;DHT22;14342;50.960;13.880;2023-08-20T03:37:15;25.50;99.90
26745;DHT22;14342;50.960;13.880;2023-08-20T03:38:16;25.50;99.90
26745;DHT22;14342;50.960;13.880;2023-08-20T03:39:17;25.50;99.90
26745;DHT22;14342;50.960;13.880;2023-08-20T03:40:18;25.50;99.90
26745;DHT22;14342;50.960;13.880;2023-08-20T03:41:20;25.50;99.90
26745;DHT22;14342;50.960;13.880;2023-08-20T03:42:20;25.50;99.90
26745;DHT22;14342;50.960;13.880;2023-08-20T03:43:21;25.50;99.90
26745;DHT22;14342;50.960;13.880;2023-08-20T03:44:23;25.50;99.90
26745;DHT22;14342;50.960;13.880;2023-08-20T03:45:23;25.50;99.90
26745;DHT22;14342;50.960;13.880;2023-08-20T03:46:25;25.40;99.90
26745;DHT22;14342;50.960;13.880;2023-08-20T03:47:30;25.50;99.90
26745;DHT22;14342;50.960;13.880;2023-08-20T03:48:31;25.50;99.90
26745;DHT22;14342;50.960;13.880;2023-08-20T03:49:32;25.50;99.90
26745;DHT22;14342;50.960;13.880;2023-08-20T03:50:34;25.50;99.90
26745;DHT22;14342;50.960;13.880;2023-08-20T03:51:34;25.50;99.90
26745;DHT22;14342;50.960;13.880;2023-08-20T03:52:36;25.50;99.90
26745;DHT22;14342;50.960;13.880;2023-08-20T03:53:37;25.50;99.90
26745;DHT22;14342;50.960;13.880;2023-08-20T03:54:38;25.50;99.90
26745;DHT22;14342;50.960;13.880;2023-08-20T03:55:39;25.50;99.90
26745;DHT22;14342;50.960;13.880;2023-08-20T03:56:41;25.50;99.90
26745;DHT22;14342;50.960;13.880;2023-08-20T03:57:41;25.50;99.90
26745;DHT22;14342;50.960;13.880;2023-08-20T03:58:43;25.50;99.90
26745;DHT22;14342;50.960;13.880;2023-08-20T03:59:43;25.50;99.90
26745;DHT22;14342;50.960;13.880;2023-08-20T04:00:46;25.50;99.90
26745;DHT22;14342;50.960;13.880;2023-08-20T04:01:47;25.50;99.90
26745;DHT22;14342;50.960;13.880;2023-08-20T04:02:49;25.50;99.90
26745;DHT22;14342;50.960;13.880;2023-08-20T04:03:51;25.50;99.90
26745;DHT22;14342;50.960;13.880;2023-08-20T04:04:52;25.50;99.90
26745;DHT22;14342;50.960;13.880;2023-08-20T04:05:53;25.40;99.90
26745;DHT22;14342;50.960;13.880;2023-08-20T04:06:54;25.40;99.90
26745;DHT22;14342;50.960;13.880;2023-08-20T04:07:56;25.30;99.90
26745;DHT22;14342;50.960;13.880;2023-08-20T04:08:56;25.30;99.90
26745;DHT22;14342;50.960;13.880;2023-08-20T04:09:58;25.40;99.90
26745;DHT22;14342;50.960;13.880;2023-08-20T04:10:59;25.40;99.90
26745;DHT22;14342;50.960;13.880;2023-08-20T04:12:03;25.40;99.90
26745;DHT22;14342;50.960;13.880;2023-08-20T04:13:04;25.40;99.90
26745;DHT22;14342;50.960;13.880;2023-08-20T04:14:04;25.40;99.90
26745;DHT22;14342;50.960;13.880;2023-08-20T04:15:06;25.40;99.90
26745;DHT22;14342;50.960;13.880;2023-08-20T04:16:07;25.30;99.90
26745;DHT22;14342;50.960;13.880;2023-08-20T04:17:08;25.40;99.90
26745;DHT22;14342;50.960;13.880;2023-08-20T04:18:10;25.40;99.90
26745;DHT22;14342;50.960;13.880;2023-08-20T04:19:12;25.40;99.90
26745;DHT22;14342;50.960;13.880;2023-08-20T04:20:13;25.40;99.90
26745;DHT22;14342;50.960;13.880;2023-08-20T04:21:14;25.40;99.90
26745;DHT22;14342;50.960;13.880;2023-08-20T04:22:15;25.30;99.90
26745;DHT22;14342;50.960;13.880;2023-08-20T04:23:15;25.10;99.90
26745;DHT22;14342;50.960;13.880;2023-08-20T04:24:17;25.20;99.90
26745;DHT22;14342;50.960;13.880;2023-08-20T04:25:18;25.20;99.90
26745;DHT22;14342;50.960;13.880;2023-08-20T04:26:19;25.20;99.90
26745;DHT22;14342;50.960;13.880;2023-08-20T04:27:20;25.20;99.90
26745;DHT22;14342;50.960;13.880;2023-08-20T04:28:22;25.30;99.90
26745;DHT22;14342;50.960;13.880;2023-08-20T04:29:22;25.30;99.90
26745;DHT22;14342;50.960;13.880;2023-08-20T04:30:24;25.30;99.90
26745;DHT22;14342;50.960;13.880;2023-08-20T04:31:24;25.30;99.90
26745;DHT22;14342;50.960;13.880;2023-08-20T04:32:26;25.40;99.90
26745;DHT22;14342;50.960;13.880;2023-08-20T04:33:28;25.40;99.90
26745;DHT22;14342;50.960;13.880;2023-08-20T04:34:30;25.40;99.90
26745;DHT22;14342;50.960;13.880;2023-08-20T04:35:30;25.40;99.90
26745;DHT22;14342;50.960;13.880;2023-08-20T04:36:32;25.40;99.90
26745;DHT22;14342;50.960;13.880;2023-08-20T04:37:32;25.40;99.90
26745;DHT22;14342;50.960;13.880;2023-08-20T04:38:34;25.40;99.90
26745;DHT22;14342;50.960;13.880;2023-08-20T04:39:35;25.40;99.90
26745;DHT22;14342;50.960;13.880;2023-08-20T04:40:36;25.50;99.90
26745;DHT22;14342;50.960;13.880;2023-08-20T04:41:37;25.50;99.90
26745;DHT22;14342;50.960;13.880;2023-08-20T04:42:39;25.50;99.90
26745;DHT22;14342;50.960;13.880;2023-08-20T04:43:39;25.50;99.90
26745;DHT22;14342;50.960;13.880;2023-08-20T04:44:41;25.50;99.90
26745;DHT22;14342;50.960;13.880;2023-08-20T04:45:41;25.50;99.90
26745;DHT22;14342;50.960;13.880;2023-08-20T04:46:43;25.50;99.90
26745;DHT22;14342;50.960;13.880;2023-08-20T04:47:44;25.50;99.90
26745;DHT22;14342;50.960;13.880;2023-08-20T04:48:47;25.50;99.90
26745;DHT22;14342;50.960;13.880;2023-08-20T04:49:47;25.50;99.90
26745;DHT22;14342;50.960;13.880;2023-08-20T04:50:49;25.50;99.90
26745;DHT22;14342;50.960;13.880;2023-08-20T04:51:50;25.50;99.90
26745;DHT22;14342;50.960;13.880;2023-08-20T04:52:51;25.50;99.90
26745;DHT22;14342;50.960;13.880;2023-08-20T04:53:52;25.50;99.90
26745;DHT22;14342;50.960;13.880;2023-08-20T04:54:54;25.50;99.90
26745;DHT22;14342;50.960;13.880;2023-08-20T04:55:56;25.50;99.90
26745;DHT22;14342;50.960;13.880;2023-08-20T04:56:58;25.40;99.90
26745;DHT22;14342;50.960;13.880;2023-08-20T04:57:59;25.30;99.90
26745;DHT22;14342;50.960;13.880;2023-08-20T04:59:00;25.30;99.90
26745;DHT22;14342;50.960;13.880;2023-08-20T05:00:01;25.30;99.90
26745;DHT22;14342;50.960;13.880;2023-08-20T05:01:03;25.30;99.90
26745;DHT22;14342;50.960;13.880;2023-08-20T05:02:03;25.20;99.90
26745;DHT22;14342;50.960;13.880;2023-08-20T05:03:05;25.30;99.90
26745;DHT22;14342;50.960;13.880;2023-08-20T05:04:07;25.30;99.90
26745;DHT22;14342;50.960;13.880;2023-08-20T05:05:09;25.50;99.90
26745;DHT22;14342;50.960;13.880;2023-08-20T05:06:10;25.40;99.90
26745;DHT22;14342;50.960;13.880;2023-08-20T05:07:12;25.40;99.90
26745;DHT22;14342;50.960;13.880;2023-08-20T05:08:13;25.40;99.90
26745;DHT22;14342;50.960;13.880;2023-08-20T05:09:14;25.30;99.90
26745;DHT22;14342;50.960;13.880;2023-08-20T05:10:16;25.30;99.90
26745;DHT22;14342;50.960;13.880;2023-08-20T05:11:18;25.40;99.90
26745;DHT22;14342;50.960;13.880;2023-08-20T05:12:18;25.30;99.90
26745;DHT22;14342;50.960;13.880;2023-08-20T05:13:20;25.30;99.90
26745;DHT22;14342;50.960;13.880;2023-08-20T05:14:21;25.40;99.90
26745;DHT22;14342;50.960;13.880;2023-08-20T05:15:22;25.40;99.90
26745;DHT22;14342;50.960;13.880;2023-08-20T05:16:23;25.40;99.90
26745;DHT22;14342;50.960;13.880;2023-08-20T05:17:25;25.40;99.90
26745;DHT22;14342;50.960;13.880;2023-08-20T05:18:25;25.50;99.90
26745;DHT22;14342;50.960;13.880;2023-08-20T05:19:28;25.50;99.90
26745;DHT22;14342;50.960;13.880;2023-08-20T05:20:29;25.50;99.90
26745;DHT22;14342;50.960;13.880;2023-08-20T05:21:31;25.50;99.90
26745;DHT22;14342;50.960;13.880;2023-08-20T05:22:31;25.50;99.90
26745;DHT22;14342;50.960;13.880;2023-08-20T05:23:33;25.50;99.90
26745;DHT22;14342;50.960;13.880;2023-08-20T05:24:34;25.50;99.90
26745;DHT22;14342;50.960;13.880;2023-08-20T05:25:35;25.50;99.90
26745;DHT22;14342;50.960;13.880;2023-08-20T05:26:36;25.50;99.90
26745;DHT22;14342;50.960;13.880;2023-08-20T05:27:38;25.50;99.90
26745;DHT22;14342;50.960;13.880;2023-08-20T05:28:38;25.60;99.90
26745;DHT22;14342;50.960;13.880;2023-08-20T05:29:40;25.70;99.90
26745;DHT22;14342;50.960;13.880;2023-08-20T05:30:41;25.70;99.90
26745;DHT22;14342;50.960;13.880;2023-08-20T05:31:43;25.80;99.90
26745;DHT22;14342;50.960;13.880;2023-08-20T05:32:43;25.70;99.90
26745;DHT22;14342;50.960;13.880;2023-08-20T05:33:45;25.80;99.90
26745;DHT22;14342;50.960;13.880;2023-08-20T05:34:47;25.80;99.90
26745;DHT22;14342;50.960;13.880;2023-08-20T05:35:49;25.80;99.90
26745;DHT22;14342;50.960;13.880;2023-08-20T05:36:49;25.80;99.90
26745;DHT22;14342;50.960;13.880;2023-08-20T05:37:51;25.80;99.90
26745;DHT22;14342;50.960;13.880;2023-08-20T05:38:51;25.80;99.90
26745;DHT22;14342;50.960;13.880;2023-08-20T05:39:53;25.70;99.90
26745;DHT22;14342;50.960;13.880;2023-08-20T05:40:54;25.80;99.90
26745;DHT22;14342;50.960;13.880;2023-08-20T05:41:55;25.80;99.90
26745;DHT22;14342;50.960;13.880;2023-08-20T05:42:56;25.90;99.90
26745;DHT22;14342;50.960;13.880;2023-08-20T05:43:58;25.90;99.90
26745;DHT22;14342;50.960;13.880;2023-08-20T05:44:58;25.80;99.90
26745;DHT22;14342;50.960;13.880;2023-08-20T05:46:00;25.80;99.90
26745;DHT22;14342;50.960;13.880;2023-08-20T05:47:00;25.70;99.90
26745;DHT22;14342;50.960;13.880;2023-08-20T05:48:01;25.70;99.90
26745;DHT22;14342;50.960;13.880;2023-08-20T05:49:03;25.70;99.90
26745;DHT22;14342;50.960;13.880;2023-08-20T05:50:05;25.60;99.90
26745;DHT22;14342;50.960;13.880;2023-08-20T05:51:07;25.70;99.90
26745;DHT22;14342;50.960;13.880;2023-08-20T05:52:08;25.80;99.90
26745;DHT22;14342;50.960;13.880;2023-08-20T05:53:09;25.80;99.90
26745;DHT22;14342;50.960;13.880;2023-08-20T05:54:10;25.80;99.90
26745;DHT22;14342;50.960;13.880;2023-08-20T05:55:12;25.80;99.90
26745;DHT22;14342;50.960;13.880;2023-08-20T05:56:12;25.80;99.90
26745;DHT22;14342;50.960;13.880;2023-08-20T05:57:14;25.80;99.90
26745;DHT22;14342;50.960;13.880;2023-08-20T05:58:14;25.80;99.90
26745;DHT22;14342;50.960;13.880;2023-08-20T05:59:16;25.70;99.90
26745;DHT22;14342;50.960;13.880;2023-08-20T06:00:17;25.70;99.90
26745;DHT22;14342;50.960;13.880;2023-08-20T06:01:19;25.60;99.90
26745;DHT22;14342;50.960;13.880;2023-08-20T06:02:19;25.50;99.90
26745;DHT22;14342;50.960;13.880;2023-08-20T06:03:21;25.50;99.90
26745;DHT22;14342;50.960;13.880;2023-08-20T06:04:22;25.50;99.90
26745;DHT22;14342;50.960;13.880;2023-08-20T06:05:25;25.50;99.90
26745;DHT22;14342;50.960;13.880;2023-08-20T06:06:26;25.50;99.90
26745;DHT22;14342;50.960;13.880;2023-08-20T06:07:27;25.50;99.90
26745;DHT22;14342;50.960;13.880;2023-08-20T06:08:28;25.50;99.90
26745;DHT22;14342;50.960;13.880;2023-08-20T06:09:30;25.50;99.90
26745;DHT22;14342;50.960;13.880;2023-08-20T06:10:30;25.50;99.90
26745;DHT22;14342;50.960;13.880;2023-08-20T06:11:32;25.40;99.90
26745;DHT22;14342;50.960;13.880;2023-08-20T06:12:33;25.50;99.90
26745;DHT22;14342;50.960;13.880;2023-08-20T06:13:35;25.50;99.90
26745;DHT22;14342;50.960;13.880;2023-08-20T06:14:35;25.50;99.90
26745;DHT22;14342;50.960;13.880;2023-08-20T06:15:37;25.60;99.90
26745;DHT22;14342;50.960;13.880;2023-08-20T06:16:38;25.60;99.90
26745;DHT22;14342;50.960;13.880;2023-08-20T06:17:39;25.50;99.90
26745;DHT22;14342;50.960;13.880;2023-08-20T06:18:40;25.50;99.90
26745;DHT22;14342;50.960;13.880;2023-08-20T06:19:42;25.40;99.90
26745;DHT22;14342;50.960;13.880;2023-08-20T06:20:44;25.30;99.90
26745;DHT22;14342;50.960;13.880;2023-08-20T06:21:45;25.40;99.90
26745;DHT22;14342;50.960;13.880;2023-08-20T06:22:46;25.40;99.90